sensor_id;sensor_type;location;lat;lon;timestamp;temperature;humidity
58983;DHT22;44771;49.982;8.560;2023-05-10T00:04:14;12.30;99.90
58983;DHT22;44771;49.982;8.560;2023-05-10T00:09:16;12.30;99.90
58983;DHT22;44771;49.982;8.560;2023-05-10T00:14:20;12.20;99.90
58983;DHT22;44771;49.982;8.560;2023-05-10T00:19:24;12.20;99.90
58983;DHT22;44771;49.982;8.560;2023-05-10T00:24:26;12.10;99.90
58983;DHT22;44771;49.982;8.560;2023-05-10T00:29:30;12.10;99.90
58983;DHT22;44771;49.982;8.560;2023-05-10T00:34:36;12.10;99.90
58983;DHT22;44771;49.982;8.560;2023-05-10T00:39:38;12.00;99.90
58983;DHT22;44771;49.982;8.560;2023-05-10T00:44:47;12.10;99.90
58983;DHT22;44771;49.982;8.560;2023-05-10T00:49:49;12.10;99.90
58983;DHT22;44771;49.982;8.560;2023-05-10T00:54:52;12.00;99.90
58983;DHT22;44771;49.982;8.560;2023-05-10T01:10:49;12.00;99.90
58983;DHT22;44771;49.982;8.560;2023-05-10T01:15:51;11.90;99.90
58983;DHT22;44771;49.982;8.560;2023-05-10T01:21:01;12.00;99.90
58983;DHT22;44771;49.982;8.560;2023-05-10T01:26:33;11.90;99.90
58983;DHT22;44771;49.982;8.560;2023-05-10T01:31:59;11.90;99.90
58983;DHT22;44771;49.982;8.560;2023-05-10T01:37:09;11.90;99.90
58983;DHT22;44771;49.982;8.560;2023-05-10T01:42:17;11.90;99.90
58983;DHT22;44771;49.982;8.560;2023-05-10T01:47:26;11.90;99.90
58983;DHT22;44771;49.982;8.560;2023-05-10T01:52:33;11.90;99.90
58983;DHT22;44771;49.982;8.560;2023-05-10T01:57:37;11.90;99.90
58983;DHT22;44771;49.982;8.560;2023-05-10T02:02:45;11.90;99.90
58983;DHT22;44771;49.982;8.560;2023-05-10T02:07:47;11.80;99.90
58983;DHT22;44771;49.982;8.560;2023-05-10T02:12:52;11.80;99.90
58983;DHT22;44771;49.982;8.560;2023-05-10T02:17:58;11.90;99.90
58983;DHT22;44771;49.982;8.560;2023-05-10T02:23:02;11.90;99.90
58983;DHT22;44771;49.982;8.560;2023-05-10T02:28:08;11.90;99.90
58983;DHT22;44771;49.982;8.560;2023-05-10T02:33:13;11.90;99.90
58983;DHT22;44771;49.982;8.560;2023-05-10T02:38:20;11.90;99.90
58983;DHT22;44771;49.982;8.560;2023-05-10T02:43:49;11.80;99.90
58983;DHT22;44771;49.982;8.560;2023-05-10T02:49:03;11.80;99.90
58983;DHT22;44771;49.982;8.560;2023-05-10T02:54:13;11.80;99.90
58983;DHT22;44771;49.982;8.560;2023-05-10T02:59:17;11.80;99.90
58983;DHT22;44771;49.982;8.560;2023-05-10T03:04:23;11.70;99.90
58983;DHT22;44771;49.982;8.560;2023-05-10T03:09:25;11.80;99.90
58983;DHT22;44771;49.982;8.560;2023-05-10T03:14:42;11.80;99.90
58983;DHT22;44771;49.982;8.560;2023-05-10T03:19:50;11.70;99.90
58983;DHT22;44771;49.982;8.560;2023-05-10T03:24:55;11.70;99.90
58983;DHT22;44771;49.982;8.560;2023-05-10T03:29:58;11.70;99.90
58983;DHT22;44771;49.982;8.560;2023-05-10T03:35:04;11.60;99.90
58983;DHT22;44771;49.982;8.560;2023-05-10T03:40:08;11.60;99.90
58983;DHT22;44771;49.982;8.560;2023-05-10T03:45:10;11.60;99.90
58983;DHT22;44771;49.982;8.560;2023-05-10T03:50:14;11.70;99.90
58983;DHT22;44771;49.982;8.560;2023-05-10T03:55:16;11.70;99.90
58983;DHT22;44771;49.982;8.560;2023-05-10T04:00:19;11.70;99.90
58983;DHT22;44771;49.982;8.560;2023-05-10T04:05:22;11.70;99.90
58983;DHT22;44771;49.982;8.560;2023-05-10T04:10:24;11.70;99.90
58983;DHT22;44771;49.982;8.560;2023-05-10T04:15:26;11.80;99.90
58983;DHT22;44771;49.982;8.560;2023-05-10T04:20:29;11.70;99.90
58983;DHT22;44771;49.982;8.560;2023-05-10T04:25:34;11.80;99.90
58983;DHT22;44771;49.982;8.560;2023-05-10T04:30:36;11.70;99.90
58983;DHT22;44771;49.982;8.560;2023-05-10T04:35:42;11.90;99.90
58983;DHT22;44771;49.982;8.560;2023-05-10T04:40:51;11.90;99.90
58983;DHT22;44771;49.982;8.560;2023-05-10T04:46:10;11.90;99.90
58983;DHT22;44771;49.982;8.560;2023-05-10T04:51:14;11.90;99.90
58983;DHT22;44771;49.982;8.560;2023-05-10T04:56:32;11.90;99.90
58983;DHT22;44771;49.982;8.560;2023-05-10T05:01:42;11.90;99.90
58983;DHT22;44771;49.982;8.560;2023-05-10T05:06:46;11.90;99.90
58983;DHT22;44771;49.982;8.560;2023-05-10T05:11:48;12.00;99.90
58983;DHT22;44771;49.982;8.560;2023-05-10T05:16:53;11.90;99.90
58983;DHT22;44771;49.982;8.560;2023-05-10T05:21:56;12.00;99.90
58983;DHT22;44771;49.982;8.560;2023-05-10T05:27:04;12.00;99.90
58983;DHT22;44771;49.982;8.560;2023-05-10T05:32:06;12.00;99.90
58983;DHT22;44771;49.982;8.560;2023-05-10T05:37:12;12.00;99.90
58983;DHT22;44771;49.982;8.560;2023-05-10T05:42:14;12.10;99.90
58983;DHT22;44771;49.982;8.560;2023-05-10T05:47:16;12.10;99.90
58983;DHT22;44771;49.982;8.560;2023-05-10T05:52:20;12.10;99.90
58983;DHT22;44771;49.982;8.560;2023-05-10T05:57:21;12.20;99.90
58983;DHT22;44771;49.982;8.560;2023-05-10T06:02:23;12.20;99.90
58983;DHT22;44771;49.982;8.560;2023-05-10T06:07:27;12.40;99.90
58983;DHT22;44771;49.982;8.560;2023-05-10T06:12:28;12.60;99.90
58983;DHT22;44771;49.982;8.560;2023-05-10T06:17:33;12.60;99.90
58983;DHT22;44771;49.982;8.560;2023-05-10T06:22:36;12.60;99.90
58983;DHT22;44771;49.982;8.560;2023-05-10T06:27:38;12.70;99.90
58983;DHT22;44771;49.982;8.560;2023-05-10T06:32:40;12.70;99.90
58983;DHT22;44771;49.982;8.560;2023-05-10T06:37:43;12.70;99.90
58983;DHT22;44771;49.982;8.560;2023-05-10T06:42:45;12.60;99.90
58983;DHT22;44771;49.982;8.560;2023-05-10T06:47:48;12.70;99.90
58983;DHT22;44771;49.982;8.560;2023-05-10T06:52:51;12.80;99.90
58983;DHT22;44771;49.982;8.560;2023-05-10T06:57:53;12.90;99.90
58983;DHT22;44771;49.982;8.560;2023-05-10T07:02:57;13.00;99.90
58983;DHT22;44771;49.982;8.560;2023-05-10T07:08:01;13.20;99.90
58983;DHT22;44771;49.982;8.560;2023-05-10T07:13:03;13.20;99.90
58983;DHT22;44771;49.982;8.560;2023-05-10T07:18:04;13.20;99.90
58983;DHT22;44771;49.982;8.560;2023-05-10T07:23:08;13.20;99.90
58983;DHT22;44771;49.982;8.560;2023-05-10T07:28:15;13.30;99.90
58983;DHT22;44771;49.982;8.560;2023-05-10T07:33:17;13.40;99.90
58983;DHT22;44771;49.982;8.560;2023-05-10T07:38:21;13.60;99.90
58983;DHT22;44771;49.982;8.560;2023-05-10T07:43:23;13.70;99.90
58983;DHT22;44771;49.982;8.560;2023-05-10T07:48:24;13.80;99.90
58983;DHT22;44771;49.982;8.560;2023-05-10T07:53:28;14.10;99.90
58983;DHT22;44771;49.982;8.560;2023-05-10T07:58:30;14.30;99.90
58983;DHT22;44771;49.982;8.560;2023-05-10T08:03:32;14.60;99.90
58983;DHT22;44771;49.982;8.560;2023-05-10T08:08:36;14.40;99.90
58983;DHT22;44771;49.982;8.560;2023-05-10T08:13:37;14.50;99.90
58983;DHT22;44771;49.982;8.560;2023-05-10T08:18:39;14.80;99.90
58983;DHT22;44771;49.982;8.560;2023-05-10T08:23:43;15.00;99.90
58983;DHT22;44771;49.982;8.560;2023-05-10T08:28:44;14.90;99.90
58983;DHT22;44771;49.982;8.560;2023-05-10T08:33:46;14.90;99.90
58983;DHT22;44771;49.982;8.560;2023-05-10T08:38:51;14.70;99.90
58983;DHT22;44771;49.982;8.560;2023-05-10T08:43:53;14.50;99.90
58983;DHT22;44771;49.982;8.560;2023-05-10T08:48:59;14.30;99.90
58983;DHT22;44771;49.982;8.560;2023-05-10T08:54:05;14.10;99.90
58983;DHT22;44771;49.982;8.560;2023-05-10T08:59:07;14.00;99.90
58983;DHT22;44771;49.982;8.560;2023-05-10T09:04:09;14.10;99.90
58983;DHT22;44771;49.982;8.560;2023-05-10T09:09:12;14.30;99.90
58983;DHT22;44771;49.982;8.560;2023-05-10T09:14:15;14.40;99.90
58983;DHT22;44771;49.982;8.560;2023-05-10T09:19:17;14.20;99.90
58983;DHT22;44771;49.982;8.560;2023-05-10T09:24:25;14.10;99.90
58983;DHT22;44771;49.982;8.560;2023-05-10T09:29:38;13.80;99.90
58983;DHT22;44771;49.982;8.560;2023-05-10T09:34:40;13.90;99.90
58983;DHT22;44771;49.982;8.560;2023-05-10T09:39:43;14.00;99.90
58983;DHT22;44771;49.982;8.560;2023-05-10T09:44:45;13.90;99.90
58983;DHT22;44771;49.982;8.560;2023-05-10T09:49:49;13.60;99.90
58983;DHT22;44771;49.982;8.560;2023-05-10T09:54:54;13.20;99.90
58983;DHT22;44771;49.982;8.560;2023-05-10T09:59:56;13.10;99.90
58983;DHT22;44771;49.982;8.560;2023-05-10T10:04:58;12.90;99.90
58983;DHT22;44771;49.982;8.560;2023-05-10T10:10:04;12.80;99.90
58983;DHT22;44771;49.982;8.560;2023-05-10T10:15:07;13.00;99.90
58983;DHT22;44771;49.982;8.560;2023-05-10T10:20:16;13.30;99.90
58983;DHT22;44771;49.982;8.560;2023-05-10T10:25:25;13.60;99.90
58983;DHT22;44771;49.982;8.560;2023-05-10T10:30:39;13.80;99.90
58983;DHT22;44771;49.982;8.560;2023-05-10T10:35:44;14.00;99.90
58983;DHT22;44771;49.982;8.560;2023-05-10T10:40:48;14.10;99.90
58983;DHT22;44771;49.982;8.560;2023-05-10T10:46:11;14.00;99.90
58983;DHT22;44771;49.982;8.560;2023-05-10T10:51:16;13.80;99.90
58983;DHT22;44771;49.982;8.560;2023-05-10T10:56:22;13.70;99.90
58983;DHT22;44771;49.982;8.560;2023-05-10T11:01:23;13.70;99.90
58983;DHT22;44771;49.982;8.560;2023-05-10T11:06:35;13.80;99.90
58983;DHT22;44771;49.982;8.560;2023-05-10T11:11:48;13.90;99.90
58983;DHT22;44771;49.982;8.560;2023-05-10T11:16:50;13.90;99.90
58983;DHT22;44771;49.982;8.560;2023-05-10T11:22:13;13.80;99.90
58983;DHT22;44771;49.982;8.560;2023-05-10T11:27:17;13.70;99.90
58983;DHT22;44771;49.982;8.560;2023-05-10T11:32:23;13.60;99.90
58983;DHT22;44771;49.982;8.560;2023-05-10T11:37:28;13.80;99.90
58983;DHT22;44771;49.982;8.560;2023-05-10T11:42:31;14.20;99.90
58983;DHT22;44771;49.982;8.560;2023-05-10T11:47:33;14.90;99.90
58983;DHT22;44771;49.982;8.560;2023-05-10T11:52:35;15.10;99.90
58983;DHT22;44771;49.982;8.560;2023-05-10T11:57:40;15.30;99.90
58983;DHT22;44771;49.982;8.560;2023-05-10T12:02:42;15.20;99.90
58983;DHT22;44771;49.982;8.560;2023-05-10T12:08:20;15.30;99.90
58983;DHT22;44771;49.982;8.560;2023-05-10T12:13:23;15.40;99.90
58983;DHT22;44771;49.982;8.560;2023-05-10T12:18:25;15.70;99.90
58983;DHT22;44771;49.982;8.560;2023-05-10T12:23:27;16.20;99.90
58983;DHT22;44771;49.982;8.560;2023-05-10T12:33:55;16.70;99.90
58983;DHT22;44771;49.982;8.560;2023-05-10T12:39:02;16.90;99.90
58983;DHT22;44771;49.982;8.560;2023-05-10T12:44:42;16.90;99.90
58983;DHT22;44771;49.982;8.560;2023-05-10T12:49:54;17.00;99.90
58983;DHT22;44771;49.982;8.560;2023-05-10T12:55:06;17.20;99.90
58983;DHT22;44771;49.982;8.560;2023-05-10T13:00:18;17.40;99.90
58983;DHT22;44771;49.982;8.560;2023-05-10T13:05:20;17.60;99.90
58983;DHT22;44771;49.982;8.560;2023-05-10T13:10:36;18.10;99.90
58983;DHT22;44771;49.982;8.560;2023-05-10T13:15:49;18.30;99.90
58983;DHT22;44771;49.982;8.560;2023-05-10T13:20:58;18.20;99.90
58983;DHT22;44771;49.982;8.560;2023-05-10T13:31:58;18.10;99.90
58983;DHT22;44771;49.982;8.560;2023-05-10T13:37:05;17.60;99.90
58983;DHT22;44771;49.982;8.560;2023-05-10T13:42:41;17.10;99.90
58983;DHT22;44771;49.982;8.560;2023-05-10T13:47:53;16.80;99.90
58983;DHT22;44771;49.982;8.560;2023-05-10T13:52:55;16.60;99.90
58983;DHT22;44771;49.982;8.560;2023-05-10T13:58:05;16.60;99.90
58983;DHT22;44771;49.982;8.560;2023-05-10T14:03:09;16.70;99.90
58983;DHT22;44771;49.982;8.560;2023-05-10T14:08:11;17.00;99.90
58983;DHT22;44771;49.982;8.560;2023-05-10T14:13:13;17.90;99.90
58983;DHT22;44771;49.982;8.560;2023-05-10T14:18:16;18.40;99.90
58983;DHT22;44771;49.982;8.560;2023-05-10T14:23:18;18.50;99.90
58983;DHT22;44771;49.982;8.560;2023-05-10T14:28:20;18.60;99.90
58983;DHT22;44771;49.982;8.560;2023-05-10T14:33:23;18.70;99.90
58983;DHT22;44771;49.982;8.560;2023-05-10T14:38:44;18.20;98.60
58983;DHT22;44771;49.982;8.560;2023-05-10T14:43:50;17.90;99.90
58983;DHT22;44771;49.982;8.560;2023-05-10T14:49:19;17.60;99.90
58983;DHT22;44771;49.982;8.560;2023-05-10T14:54:24;17.40;99.90
58983;DHT22;44771;49.982;8.560;2023-05-10T14:59:36;17.20;99.90
58983;DHT22;44771;49.982;8.560;2023-05-10T15:04:45;17.20;99.90
58983;DHT22;44771;49.982;8.560;2023-05-10T15:09:47;17.10;99.90
58983;DHT22;44771;49.982;8.560;2023-05-10T15:14:51;17.20;99.90
58983;DHT22;44771;49.982;8.560;2023-05-10T15:19:54;17.00;99.90
58983;DHT22;44771;49.982;8.560;2023-05-10T15:24:56;17.00;99.90
58983;DHT22;44771;49.982;8.560;2023-05-10T15:29:57;17.10;99.90
58983;DHT22;44771;49.982;8.560;2023-05-10T15:35:01;17.00;99.90
58983;DHT22;44771;49.982;8.560;2023-05-10T15:40:13;17.10;99.90
58983;DHT22;44771;49.982;8.560;2023-05-10T15:45:18;17.10;99.90
58983;DHT22;44771;49.982;8.560;2023-05-10T15:50:22;17.10;99.90
58983;DHT22;44771;49.982;8.560;2023-05-10T15:55:24;17.00;99.90
58983;DHT22;44771;49.982;8.560;2023-05-10T16:00:26;16.80;99.90
58983;DHT22;44771;49.982;8.560;2023-05-10T16:05:29;16.80;99.90
58983;DHT22;44771;49.982;8.560;2023-05-10T16:10:31;16.90;99.90
58983;DHT22;44771;49.982;8.560;2023-05-10T16:15:33;16.90;99.90
58983;DHT22;44771;49.982;8.560;2023-05-10T16:20:37;17.00;99.90
58983;DHT22;44771;49.982;8.560;2023-05-10T16:25:39;17.00;99.90
58983;DHT22;44771;49.982;8.560;2023-05-10T16:30:41;17.00;99.90
58983;DHT22;44771;49.982;8.560;2023-05-10T16:35:44;17.00;99.90
58983;DHT22;44771;49.982;8.560;2023-05-10T16:40:46;17.00;99.90
58983;DHT22;44771;49.982;8.560;2023-05-10T16:45:48;17.10;99.90
58983;DHT22;44771;49.982;8.560;2023-05-10T16:50:51;17.00;99.90
58983;DHT22;44771;49.982;8.560;2023-05-10T16:55:53;17.00;99.90
58983;DHT22;44771;49.982;8.560;2023-05-10T17:00:54;17.00;99.90
58983;DHT22;44771;49.982;8.560;2023-05-10T17:05:58;16.90;99.90
58983;DHT22;44771;49.982;8.560;2023-05-10T17:11:00;16.80;99.90
58983;DHT22;44771;49.982;8.560;2023-05-10T17:16:02;16.80;99.90
58983;DHT22;44771;49.982;8.560;2023-05-10T17:21:07;16.70;99.90
58983;DHT22;44771;49.982;8.560;2023-05-10T17:26:09;16.60;99.90
58983;DHT22;44771;49.982;8.560;2023-05-10T17:31:11;16.40;99.90
58983;DHT22;44771;49.982;8.560;2023-05-10T17:36:15;16.20;99.90
58983;DHT22;44771;49.982;8.560;2023-05-10T17:41:17;16.10;99.90
58983;DHT22;44771;49.982;8.560;2023-05-10T17:46:19;16.00;99.90
58983;DHT22;44771;49.982;8.560;2023-05-10T17:51:22;15.90;99.90
58983;DHT22;44771;49.982;8.560;2023-05-10T17:56:24;15.80;99.90
58983;DHT22;44771;49.982;8.560;2023-05-10T18:01:26;15.80;99.90
58983;DHT22;44771;49.982;8.560;2023-05-10T18:06:29;15.70;99.90
58983;DHT22;44771;49.982;8.560;2023-05-10T18:11:33;15.50;99.90
58983;DHT22;44771;49.982;8.560;2023-05-10T18:16:35;15.40;99.90
58983;DHT22;44771;49.982;8.560;2023-05-10T18:21:39;15.20;99.90
58983;DHT22;44771;49.982;8.560;2023-05-10T18:26:41;15.10;99.90
58983;DHT22;44771;49.982;8.560;2023-05-10T18:31:43;14.90;99.90
58983;DHT22;44771;49.982;8.560;2023-05-10T18:36:46;14.80;99.90
58983;DHT22;44771;49.982;8.560;2023-05-10T18:41:48;14.50;99.90
58983;DHT22;44771;49.982;8.560;2023-05-10T18:46:50;14.20;99.90
58983;DHT22;44771;49.982;8.560;2023-05-10T18:51:54;14.00;99.90
58983;DHT22;44771;49.982;8.560;2023-05-10T18:56:57;13.80;99.90
58983;DHT22;44771;49.982;8.560;2023-05-10T19:01:59;13.50;99.90
58983;DHT22;44771;49.982;8.560;2023-05-10T19:07:03;13.20;99.90
58983;DHT22;44771;49.982;8.560;2023-05-10T19:12:05;12.90;99.90
58983;DHT22;44771;49.982;8.560;2023-05-10T19:17:06;12.60;99.90
58983;DHT22;44771;49.982;8.560;2023-05-10T19:22:10;12.20;99.90
58983;DHT22;44771;49.982;8.560;2023-05-10T19:27:13;12.00;99.90
58983;DHT22;44771;49.982;8.560;2023-05-10T19:32:15;11.90;99.90
58983;DHT22;44771;49.982;8.560;2023-05-10T19:37:18;11.80;99.90
58983;DHT22;44771;49.982;8.560;2023-05-10T19:42:20;11.60;99.90
58983;DHT22;44771;49.982;8.560;2023-05-10T19:47:25;11.50;99.90
58983;DHT22;44771;49.982;8.560;2023-05-10T19:52:28;11.40;99.90
58983;DHT22;44771;49.982;8.560;2023-05-10T19:57:30;11.30;99.90
58983;DHT22;44771;49.982;8.560;2023-05-10T20:02:32;11.20;99.90
58983;DHT22;44771;49.982;8.560;2023-05-10T20:07:35;11.10;99.90
58983;DHT22;44771;49.982;8.560;2023-05-10T20:12:37;10.90;99.90
58983;DHT22;44771;49.982;8.560;2023-05-10T20:17:39;10.80;99.90
58983;DHT22;44771;49.982;8.560;2023-05-10T20:22:42;10.80;99.90
58983;DHT22;44771;49.982;8.560;2023-05-10T20:27:44;10.80;99.90
58983;DHT22;44771;49.982;8.560;2023-05-10T20:32:46;11.00;99.90
58983;DHT22;44771;49.982;8.560;2023-05-10T20:37:50;11.10;99.90
58983;DHT22;44771;49.982;8.560;2023-05-10T20:42:51;11.10;99.90
58983;DHT22;44771;49.982;8.560;2023-05-10T20:47:53;11.10;99.90
58983;DHT22;44771;49.982;8.560;2023-05-10T20:52:57;11.10;99.90
58983;DHT22;44771;49.982;8.560;2023-05-10T20:57:59;11.20;99.90
58983;DHT22;44771;49.982;8.560;2023-05-10T21:03:03;11.10;99.90
58983;DHT22;44771;49.982;8.560;2023-05-10T21:08:07;11.10;99.90
58983;DHT22;44771;49.982;8.560;2023-05-10T21:13:11;11.30;99.90
58983;DHT22;44771;49.982;8.560;2023-05-10T21:18:13;11.30;99.90
58983;DHT22;44771;49.982;8.560;2023-05-10T21:23:16;11.40;99.90
58983;DHT22;44771;49.982;8.560;2023-05-10T21:28:20;11.40;99.90
58983;DHT22;44771;49.982;8.560;2023-05-10T21:33:23;11.20;99.90
58983;DHT22;44771;49.982;8.560;2023-05-10T21:38:27;10.90;99.90
58983;DHT22;44771;49.982;8.560;2023-05-10T21:43:30;10.80;99.90
58983;DHT22;44771;49.982;8.560;2023-05-10T21:48:31;10.80;99.90
58983;DHT22;44771;49.982;8.560;2023-05-10T21:53:36;10.80;99.90
58983;DHT22;44771;49.982;8.560;2023-05-10T21:58:37;10.80;99.90
58983;DHT22;44771;49.982;8.560;2023-05-10T22:03:39;10.90;99.90
58983;DHT22;44771;49.982;8.560;2023-05-10T22:08:43;11.00;99.90
58983;DHT22;44771;49.982;8.560;2023-05-10T22:13:45;11.00;99.90
58983;DHT22;44771;49.982;8.560;2023-05-10T22:18:46;11.10;99.90
58983;DHT22;44771;49.982;8.560;2023-05-10T22:23:49;11.10;99.90
58983;DHT22;44771;49.982;8.560;2023-05-10T22:28:51;11.10;99.90
58983;DHT22;44771;49.982;8.560;2023-05-10T22:33:53;11.10;99.90
58983;DHT22;44771;49.982;8.560;2023-05-10T22:38:59;11.00;99.90
58983;DHT22;44771;49.982;8.560;2023-05-10T22:44:01;10.90;99.90
58983;DHT22;44771;49.982;8.560;2023-05-10T22:49:03;10.70;99.90
58983;DHT22;44771;49.982;8.560;2023-05-10T22:54:06;10.50;99.90
58983;DHT22;44771;49.982;8.560;2023-05-10T22:59:08;10.30;99.90
58983;DHT22;44771;49.982;8.560;2023-05-10T23:04:10;10.30;99.90
58983;DHT22;44771;49.982;8.560;2023-05-10T23:09:13;10.30;99.90
58983;DHT22;44771;49.982;8.560;2023-05-10T23:14:15;10.40;99.90
58983;DHT22;44771;49.982;8.560;2023-05-10T23:19:16;10.50;99.90
58983;DHT22;44771;49.982;8.560;2023-05-10T23:24:19;10.50;99.90
58983;DHT22;44771;49.982;8.560;2023-05-10T23:29:21;10.50;99.90
58983;DHT22;44771;49.982;8.560;2023-05-10T23:34:23;10.50;99.90
58983;DHT22;44771;49.982;8.560;2023-05-10T23:39:26;10.50;99.90
58983;DHT22;44771;49.982;8.560;2023-05-10T23:44:28;10.50;99.90
58983;DHT22;44771;49.982;8.560;2023-05-10T23:49:30;10.50;99.90
58983;DHT22;44771;49.982;8.560;2023-05-10T23:54:36;10.50;99.90
58983;DHT22;44771;49.982;8.560;2023-05-10T23:59:38;10.40;99.90
